Red Bank, South Carolina
Current Conditions -  °F | °C
As of 10:56 AM on Sunday 21 Dec 2014 (Local Time) from KCAE Reporting Station
Overcast Overcast  
Wind Chill: 44°   Ceiling: 6500
Heat Index: 48°   Visibility: 10mi
Dew Point: 35°   Wind: 9mph
Humidity: 61%   Direction: 60°ENE
Pressure: 30.27"   Gusts: NA
Location:  33.9903°N, 81.2681°W
Report Text: KCAE 211556Z 06008KT 10SM OVC065 09/02 A3027 RMK AO2 SLP250 T00890017
Loading
Personal Weather Stations






























Interactive Weather Map New forecast layout! Learn more

10-Day Weather Forecast

Advertisements
Track Severe Weather on mobile